Time;durP1;ratioP1;P1;durP2;ratioP2;P2;SDS_P1;SDS_P2;PMS_P1;PMS_P2;Temp;Humidity;BMP_temperature;BMP_pressure;BME280_temperature;BME280_humidity;BME280_pressure;Samples;Min_cycle;Max_cycle;Signal;HPM_P1;HPM_P2
2023/12/22 00:02:14;;;;;;;10.35;1.98;;;;;;;8.89;68.47;100259.94;6194930;23;20095;-68
2023/12/22 00:04:42;;;;;;;13.88;2.10;;;;;;;8.83;68.57;100267.03;6195079;23;20032;-69
2023/12/22 00:07:10;;;;;;;13.80;2.47;;;;;;;8.80;68.12;100262.13;6194416;23;20046;-69
2023/12/22 00:09:38;;;;;;;11.73;2.33;;;;;;;8.81;68.62;100269.09;6194214;23;20025;-69
2023/12/22 00:12:06;;;;;;;10.68;2.63;;;;;;;8.80;68.29;100265.63;6194865;23;20040;-68
2023/12/22 00:14:34;;;;;;;11.27;2.13;;;;;;;8.84;68.45;100274.03;6193872;23;20095;-68
2023/12/22 00:17:03;;;;;;;10.75;2.28;;;;;;;8.87;68.09;100257.50;6195255;23;20024;-69
2023/12/22 00:19:31;;;;;;;11.80;3.10;;;;;;;8.86;67.97;100265.75;6194994;23;20092;-69
2023/12/22 00:21:59;;;;;;;11.90;2.78;;;;;;;8.87;67.95;100260.19;6195075;23;20025;-69
2023/12/22 00:24:27;;;;;;;14.07;2.92;;;;;;;8.87;68.58;100260.19;6193703;23;20025;-68
2023/12/22 00:26:55;;;;;;;15.32;3.33;;;;;;;8.89;67.94;100271.50;6194748;23;20025;-69
2023/12/22 00:29:22;;;;;;;12.90;2.95;;;;;;;8.85;68.38;100270.28;6194657;23;20021;-69
2023/12/22 00:31:50;;;;;;;14.45;2.75;;;;;;;8.80;67.93;100273.66;6195812;23;20025;-70
2023/12/22 00:34:20;;;;;;;17.17;3.40;;;;;;;8.72;67.47;100284.66;6194142;23;20080;-68
2023/12/22 00:36:48;;;;;;;21.02;4.30;;;;;;;8.69;67.47;100287.78;6195041;23;20049;-69
2023/12/22 00:39:15;;;;;;;15.60;2.72;;;;;;;8.65;67.96;100310.75;6194058;23;20021;-69
2023/12/22 00:41:43;;;;;;;17.42;3.30;;;;;;;8.67;67.82;100294.41;6195554;23;20087;-68
2023/12/22 00:44:10;;;;;;;14.85;4.10;;;;;;;8.64;67.96;100311.78;6193488;23;20077;-69
2023/12/22 00:46:38;;;;;;;23.65;4.00;;;;;;;8.60;67.62;100293.69;6195542;23;20062;-68
2023/12/22 00:49:05;;;;;;;17.38;3.38;;;;;;;8.61;67.12;100314.09;6194778;23;20096;-68
2023/12/22 00:51:35;;;;;;;21.10;4.70;;;;;;;8.61;68.02;100301.50;6195065;23;20048;-68
2023/12/22 00:54:03;;;;;;;15.20;3.17;;;;;;;8.63;67.66;100302.09;6193299;23;20036;-69
2023/12/22 00:56:30;;;;;;;17.55;3.50;;;;;;;8.64;67.89;100297.56;6195682;23;20025;-68
2023/12/22 00:58:58;;;;;;;21.38;3.38;;;;;;;8.67;67.59;100303.28;6194443;23;20025;-70
2023/12/22 01:01:37;;;;;;;12.48;2.97;;;;;;;8.64;67.31;100313.63;6195337;23;20021;-68
2023/12/22 01:04:05;;;;;;;22.38;3.03;;;;;;;8.68;67.50;100304.09;6194411;23;20052;-69
2023/12/22 01:06:38;;;;;;;14.32;3.95;;;;;;;8.62;66.91;100313.03;6194293;23;20025;-69
2023/12/22 01:09:06;;;;;;;16.50;3.60;;;;;;;8.59;66.70;100313.50;6193480;23;20558;-68
2023/12/22 01:11:34;;;;;;;17.88;3.10;;;;;;;8.58;66.38;100335.97;6195173;23;20032;-69
2023/12/22 01:14:02;;;;;;;15.02;3.35;;;;;;;8.60;66.23;100323.16;6193180;23;20273;-69
2023/12/22 01:16:29;;;;;;;16.23;2.55;;;;;;;8.59;66.74;100316.16;6195427;23;20055;-69
2023/12/22 01:18:57;;;;;;;14.18;2.95;;;;;;;8.58;66.58;100315.34;6194545;23;20079;-69
2023/12/22 01:21:25;;;;;;;14.95;2.90;;;;;;;8.53;66.66;100327.75;6194938;23;20155;-69
2023/12/22 01:23:54;;;;;;;9.98;2.75;;;;;;;8.52;66.67;100315.41;6192963;23;20124;-69
2023/12/22 01:26:22;;;;;;;14.85;3.42;;;;;;;8.52;66.73;100312.72;6195773;23;20025;-69
2023/12/22 01:28:50;;;;;;;13.80;2.92;;;;;;;8.40;66.19;100312.63;6194625;23;20448;-69
2023/12/22 01:31:18;;;;;;;12.13;2.65;;;;;;;8.46;65.90;100336.69;6194540;23;20455;-69
2023/12/22 01:33:45;;;;;;;13.18;2.22;;;;;;;8.47;66.65;100340.19;6194256;23;20087;-69
2023/12/22 01:36:13;;;;;;;15.20;3.33;;;;;;;8.49;66.91;100346.13;6194832;23;20025;-69
2023/12/22 01:38:41;;;;;;;13.35;2.88;;;;;;;8.54;65.97;100348.16;6193788;23;20029;-68
2023/12/22 01:41:10;;;;;;;16.58;3.08;;;;;;;8.56;66.49;100354.94;6194876;23;20029;-69
2023/12/22 01:43:38;;;;;;;10.65;2.53;;;;;;;8.58;66.36;100352.03;6194109;23;20029;-69
2023/12/22 01:46:07;;;;;;;18.00;3.22;;;;;;;8.52;66.17;100350.22;6193151;23;20048;-70
2023/12/22 01:48:36;;;;;;;20.52;3.13;;;;;;;8.56;65.82;100346.06;6194756;23;20043;-69
2023/12/22 01:51:05;;;;;;;11.45;2.67;;;;;;;8.53;66.02;100347.31;6193649;23;20044;-69
2023/12/22 01:53:33;;;;;;;15.00;3.17;;;;;;;8.50;65.82;100352.31;6194499;23;20095;-69
2023/12/22 01:56:06;;;;;;;17.02;3.30;;;;;;;8.46;65.22;100352.75;6193942;23;20052;-69
2023/12/22 01:58:37;;;;;;;10.23;2.67;;;;;;;8.52;66.36;100350.22;6194036;23;20095;-69
2023/12/22 02:01:06;;;;;;;11.32;3.38;;;;;;;8.58;65.45;100362.75;6194624;23;20044;-69
2023/12/22 02:03:34;;;;;;;18.48;3.58;;;;;;;8.57;65.33;100369.94;6194521;23;20074;-69
2023/12/22 02:06:02;;;;;;;15.63;2.80;;;;;;;8.56;65.15;100380.88;6194168;23;20069;-69
2023/12/22 02:08:33;;;;;;;15.23;3.22;;;;;;;8.60;65.72;100372.19;6195508;23;20052;-69
2023/12/22 02:11:00;;;;;;;12.95;3.30;;;;;;;8.66;66.04;100375.84;6196194;23;20557;-69
2023/12/22 02:13:29;;;;;;;14.63;3.25;;;;;;;8.66;65.33;100371.31;6195644;23;20444;-69
2023/12/22 02:16:04;;;;;;;18.30;4.30;;;;;;;8.67;65.46;100374.78;6194937;23;20081;-69
2023/12/22 02:18:36;;;;;;;12.68;2.63;;;;;;;8.63;65.82;100358.34;6196709;23;20032;-69
2023/12/22 02:21:04;;;;;;;13.02;3.60;;;;;;;8.55;64.72;100339.91;6195951;23;20072;-69
2023/12/22 02:23:33;;;;;;;20.27;3.40;;;;;;;8.48;63.84;100331.09;6195997;23;20025;-69
2023/12/22 02:26:11;;;;;;;13.05;2.80;;;;;;;8.46;64.12;100343.91;6194897;23;20025;-69
2023/12/22 02:28:40;;;;;;;16.73;4.45;;;;;;;8.41;63.30;100355.25;6195968;23;20024;-69
2023/12/22 02:31:17;;;;;;;19.55;3.40;;;;;;;8.42;63.18;100356.91;6196173;23;20021;-69
2023/12/22 02:33:46;;;;;;;17.75;3.72;;;;;;;8.38;61.94;100349.53;6196405;23;20032;-69
2023/12/22 02:36:17;;;;;;;17.88;3.75;;;;;;;8.41;62.74;100360.63;6194822;23;20086;-69
2023/12/22 02:38:48;;;;;;;23.02;3.65;;;;;;;8.44;62.15;100388.81;6195498;23;20026;-69
2023/12/22 02:41:16;;;;;;;13.23;3.28;;;;;;;8.41;61.40;100400.78;6196301;23;20021;-69
2023/12/22 02:43:44;;;;;;;17.88;2.83;;;;;;;8.27;61.78;100409.94;6196047;23;20029;-69
2023/12/22 02:46:14;;;;;;;12.50;2.63;;;;;;;8.20;63.27;100419.03;6195879;23;20051;-68
2023/12/22 02:48:42;;;;;;;21.00;3.42;;;;;;;8.19;64.34;100412.03;6195452;23;20025;-68
2023/12/22 02:51:10;;;;;;;16.85;2.63;;;;;;;8.26;64.69;100400.25;6195502;23;20021;-68
2023/12/22 02:53:38;;;;;;;19.42;2.85;;;;;;;8.22;65.45;100395.56;6195766;23;20072;-68
2023/12/22 02:56:07;;;;;;;12.77;2.67;;;;;;;8.25;66.13;100408.50;6195473;23;20280;-69
2023/12/22 02:58:35;;;;;;;14.27;3.13;;;;;;;8.33;66.61;100392.19;6195040;23;20075;-69
2023/12/22 03:01:03;;;;;;;18.35;4.15;;;;;;;8.39;66.14;100389.47;6195631;23;20084;-69
2023/12/22 03:03:31;;;;;;;16.05;3.25;;;;;;;8.43;65.66;100379.16;6195974;23;20025;-68
2023/12/22 03:05:59;;;;;;;19.70;4.07;;;;;;;8.40;66.75;100366.19;6195515;23;20129;-68
2023/12/22 03:08:27;;;;;;;18.92;3.05;;;;;;;8.42;66.95;100361.44;6194554;23;20095;-69
2023/12/22 03:10:55;;;;;;;14.75;3.33;;;;;;;8.44;66.53;100360.19;6195430;23;20048;-69
2023/12/22 03:13:24;;;;;;;18.88;4.68;;;;;;;8.49;66.70;100351.50;6194888;23;20025;-69
2023/12/22 03:15:52;;;;;;;14.57;3.05;;;;;;;8.52;66.54;100350.22;6194847;23;20055;-69
2023/12/22 03:18:20;;;;;;;13.73;2.95;;;;;;;8.54;66.82;100340.13;6195718;23;20025;-69
2023/12/22 03:20:47;;;;;;;11.85;2.63;;;;;;;8.55;67.43;100347.09;6194948;23;20028;-68
2023/12/22 03:23:15;;;;;;;18.42;3.38;;;;;;;8.56;67.02;100346.06;6195144;23;20056;-69
2023/12/22 03:25:43;;;;;;;9.65;2.25;;;;;;;8.56;67.37;100348.75;6194836;23;20029;-69
2023/12/22 03:28:11;;;;;;;18.63;3.70;;;;;;;8.55;66.99;100334.53;6195066;23;20105;-69
2023/12/22 03:30:40;;;;;;;16.85;3.13;;;;;;;8.56;67.73;100338.03;6194362;23;20387;-69
2023/12/22 03:33:08;;;;;;;17.20;3.05;;;;;;;8.55;67.23;100323.81;6195390;23;20025;-69
2023/12/22 03:35:36;;;;;;;17.20;2.65;;;;;;;8.56;67.42;100336.19;6194553;23;20331;-69
2023/12/22 03:38:04;;;;;;;22.05;3.65;;;;;;;8.56;67.56;100330.00;6194741;23;20025;-69
2023/12/22 03:40:33;;;;;;;15.52;3.53;;;;;;;8.46;67.41;100320.63;6194978;23;20036;-69
2023/12/22 03:43:01;;;;;;;12.05;2.88;;;;;;;8.51;68.28;100336.03;6195158;23;20036;-69
2023/12/22 03:45:29;;;;;;;13.85;2.83;;;;;;;8.52;68.03;100324.25;6195013;23;20087;-69
2023/12/22 03:47:58;;;;;;;17.60;2.80;;;;;;;8.47;67.76;100330.28;6195925;23;20075;-69
2023/12/22 03:50:26;;;;;;;17.65;3.83;;;;;;;8.43;67.99;100341.66;6194179;23;20029;-69
2023/12/22 03:52:54;;;;;;;16.85;3.10;;;;;;;8.45;68.27;100344.94;6194774;23;20021;-68
2023/12/22 03:55:22;;;;;;;15.75;3.03;;;;;;;8.46;68.42;100347.38;6195658;23;20076;-69
2023/12/22 03:57:49;;;;;;;23.10;4.13;;;;;;;8.45;67.84;100344.94;6193889;23;20163;-68
2023/12/22 04:00:18;;;;;;;16.27;3.00;;;;;;;8.40;68.30;100340.25;6195809;23;20096;-68
2023/12/22 04:02:46;;;;;;;19.63;2.88;;;;;;;8.42;68.17;100346.19;6195529;23;20036;-69
2023/12/22 04:05:15;;;;;;;27.27;3.83;;;;;;;8.43;68.23;100341.66;6194725;23;20028;-69
2023/12/22 04:07:43;;;;;;;13.05;2.42;;;;;;;8.41;67.89;100344.56;6194659;23;20341;-69
2023/12/22 04:10:11;;;;;;;12.95;3.13;;;;;;;8.43;68.18;100357.72;6195074;23;20025;-69
2023/12/22 04:12:38;;;;;;;20.40;3.78;;;;;;;8.48;67.70;100366.75;6194429;23;20017;-69
2023/12/22 04:15:08;;;;;;;14.00;2.78;;;;;;;8.51;67.87;100370.00;6194947;23;20158;-69
2023/12/22 04:17:36;;;;;;;10.95;3.25;;;;;;;8.51;68.30;100359.31;6194187;23;20025;-69
2023/12/22 04:20:04;;;;;;;15.60;2.78;;;;;;;8.52;67.47;100367.13;6195614;23;20025;-69
2023/12/22 04:22:33;;;;;;;19.75;3.95;;;;;;;8.46;68.25;100360.78;6194328;23;20024;-69
2023/12/22 04:25:01;;;;;;;19.48;3.35;;;;;;;8.54;68.73;100369.56;6195051;23;20084;-69
2023/12/22 04:27:29;;;;;;;20.10;3.45;;;;;;;8.53;68.08;100374.09;6193973;23;20083;-69
2023/12/22 04:29:57;;;;;;;17.08;3.35;;;;;;;8.54;68.02;100381.09;6194784;23;20035;-69
2023/12/22 04:32:25;;;;;;;16.95;3.28;;;;;;;8.53;67.78;100381.31;6195741;23;20059;-69
2023/12/22 04:34:53;;;;;;;19.55;2.95;;;;;;;8.54;67.61;100377.59;6195552;23;20032;-69
2023/12/22 04:37:20;;;;;;;14.93;3.65;;;;;;;8.58;67.37;100384.16;6194468;23;20044;-70
2023/12/22 04:39:50;;;;;;;20.63;3.45;;;;;;;8.54;67.96;100382.97;6194852;23;20269;-69
2023/12/22 04:42:18;;;;;;;16.30;4.00;;;;;;;8.58;67.50;100401.06;6195290;23;20094;-69
2023/12/22 04:44:46;;;;;;;15.85;3.50;;;;;;;8.55;67.67;100389.97;6195026;23;20021;-69
2023/12/22 04:47:15;;;;;;;19.52;3.85;;;;;;;8.56;67.20;100394.28;6194551;23;20052;-69
2023/12/22 04:49:43;;;;;;;13.77;3.70;;;;;;;8.59;66.89;100391.97;6195214;23;20032;-69
2023/12/22 04:52:12;;;;;;;18.00;3.72;;;;;;;8.61;67.61;100389.09;6194403;23;20026;-69
2023/12/22 04:54:40;;;;;;;11.68;3.05;;;;;;;8.61;67.39;100389.09;6194223;23;20021;-69
2023/12/22 04:57:09;;;;;;;13.70;3.78;;;;;;;8.62;67.44;100388.88;6193711;23;20029;-69
2023/12/22 04:59:36;;;;;;;17.02;3.63;;;;;;;8.61;67.19;100389.91;6194927;23;20025;-69
2023/12/22 05:02:04;;;;;;;17.13;4.00;;;;;;;8.61;67.48;100394.44;6194859;23;20017;-69
2023/12/22 05:04:32;;;;;;;16.92;3.00;;;;;;;8.62;67.11;100394.22;6195025;23;20507;-68
2023/12/22 05:07:06;;;;;;;14.02;2.65;;;;;;;8.64;67.94;100402.84;6194500;23;20025;-69
2023/12/22 05:09:34;;;;;;;16.77;3.20;;;;;;;8.64;68.04;100408.22;6193756;23;20051;-69
2023/12/22 05:12:02;;;;;;;17.55;2.80;;;;;;;8.64;68.15;100402.03;6194710;23;20467;-69
2023/12/22 05:14:31;;;;;;;13.07;3.30;;;;;;;8.67;67.75;100407.75;6195036;23;20029;-69
2023/12/22 05:16:59;;;;;;;19.50;4.07;;;;;;;8.67;68.04;100417.63;6194391;23;20358;-69
2023/12/22 05:19:27;;;;;;;18.20;3.80;;;;;;;8.68;67.88;100406.69;6194706;23;20128;-69
2023/12/22 05:21:56;;;;;;;22.52;4.47;;;;;;;8.68;68.84;100393.31;6194361;23;20024;-70
2023/12/22 05:24:24;;;;;;;16.20;4.10;;;;;;;8.69;68.61;100402.16;6193707;23;20044;-68
2023/12/22 05:26:53;;;;;;;22.45;4.95;;;;;;;8.64;68.71;100397.50;6194972;23;20033;-69
2023/12/22 05:29:21;;;;;;;17.77;3.85;;;;;;;8.67;69.26;100394.34;6192507;23;20025;-69
2023/12/22 05:31:50;;;;;;;16.48;3.50;;;;;;;8.67;69.62;100415.78;6194318;23;20021;-69
2023/12/22 05:34:18;;;;;;;19.70;4.43;;;;;;;8.68;69.56;100420.09;6194289;23;20035;-69
2023/12/22 05:36:46;;;;;;;27.00;4.90;;;;;;;8.67;69.62;100396.22;6194094;23;20028;-69
2023/12/22 05:39:14;;;;;;;15.93;3.20;;;;;;;8.63;70.01;100411.94;6193582;23;20021;-70
2023/12/22 05:41:41;;;;;;;21.83;3.47;;;;;;;8.63;70.89;100401.22;6195838;23;20039;-69
2023/12/22 05:44:09;;;;;;;22.40;5.53;;;;;;;8.66;71.22;100395.41;6195651;23;20314;-69
2023/12/22 05:46:38;;;;;;;16.80;4.00;;;;;;;8.68;70.77;100414.75;6196843;23;20024;-69
2023/12/22 05:49:07;;;;;;;24.20;4.25;;;;;;;8.67;71.38;100406.91;6196359;23;20025;-69
2023/12/22 05:51:39;;;;;;;21.83;4.82;;;;;;;8.67;71.59;100394.34;6195789;23;20021;-69
2023/12/22 05:54:10;;;;;;;20.42;4.68;;;;;;;8.65;71.44;100392.97;6195724;23;20025;-68
2023/12/22 05:56:38;;;;;;;21.52;5.32;;;;;;;8.67;71.10;100401.56;6196691;23;20025;-69
2023/12/22 05:59:05;;;;;;;27.73;4.88;;;;;;;8.68;71.80;100408.56;6195517;23;20124;-69
2023/12/22 06:01:33;;;;;;;22.00;4.97;;;;;;;8.70;71.69;100409.97;6196508;23;20025;-68
2023/12/22 06:04:01;;;;;;;25.10;4.97;;;;;;;8.68;71.63;100392.50;6196224;23;20028;-68
2023/12/22 06:06:30;;;;;;;25.33;5.25;;;;;;;8.70;71.40;100387.72;6196192;23;20096;-68
2023/12/22 06:08:58;;;;;;;22.85;4.70;;;;;;;8.71;71.23;100389.38;6194926;23;20033;-67
2023/12/22 06:11:26;;;;;;;25.23;7.03;;;;;;;8.73;71.40;100385.44;6195470;23;20091;-67
2023/12/22 06:13:54;;;;;;;22.50;4.35;;;;;;;8.74;71.17;100380.88;6195273;23;20029;-67
2023/12/22 06:16:23;;;;;;;22.83;5.07;;;;;;;8.73;70.98;100382.75;6196620;23;20021;-68
2023/12/22 06:18:51;;;;;;;27.23;5.75;;;;;;;8.73;70.63;100389.97;6196220;23;20029;-68
2023/12/22 06:21:18;;;;;;;25.77;4.53;;;;;;;8.72;71.33;100393.69;6196027;23;20029;-68
2023/12/22 06:23:48;;;;;;;29.67;6.93;;;;;;;8.72;71.00;100381.13;6194616;23;20076;-70
2023/12/22 06:26:15;;;;;;;27.25;5.20;;;;;;;8.70;70.96;100383.19;6196396;23;20029;-67
2023/12/22 06:28:43;;;;;;;32.53;5.15;;;;;;;8.73;70.70;100387.28;6195819;23;20064;-65
2023/12/22 06:31:19;;;;;;;34.88;6.70;;;;;;;8.72;70.45;100385.66;6196025;23;20028;-66
2023/12/22 06:33:48;;;;;;;27.93;5.00;;;;;;;8.71;70.55;100387.50;6196048;23;20163;-67
2023/12/22 06:36:20;;;;;;;27.45;6.55;;;;;;;8.74;70.56;100387.06;6194897;23;20253;-68
2023/12/22 06:38:50;;;;;;;21.90;4.78;;;;;;;8.72;70.76;100383.78;6194518;23;20550;-65
2023/12/22 06:41:22;;;;;;;23.10;4.93;;;;;;;8.73;70.20;100393.47;6195810;23;20099;-63
2023/12/22 06:43:54;;;;;;;;;;;;;;;8.75;70.32;100394.06;6195630;23;20519;-64
2023/12/22 06:46:26;;;;;;;27.33;5.68;;;;;;;8.74;70.50;100415.72;6195367;23;19916;-66
2023/12/22 06:48:54;;;;;;;29.00;5.25;;;;;;;8.76;70.37;100413.63;6196809;23;20021;-64
2023/12/22 06:51:24;;;;;;;26.77;5.50;;;;;;;8.77;70.38;100423.31;6195915;23;20025;-67
2023/12/22 06:53:54;;;;;;;46.17;7.45;;;;;;;8.78;70.91;100419.59;6194257;23;20423;-65
2023/12/22 06:56:24;;;;;;;29.45;6.85;;;;;;;8.74;70.49;100408.50;6191747;23;20059;-65
2023/12/22 06:58:53;;;;;;;27.30;6.13;;;;;;;8.78;70.63;100401.66;6190976;23;20557;-66
2023/12/22 07:01:21;;;;;;;28.13;6.38;;;;;;;8.82;70.71;100402.03;6192043;23;20040;-65
2023/12/22 07:03:50;;;;;;;26.08;5.75;;;;;;;8.86;70.86;100405.09;6193895;23;20547;-66
2023/12/22 07:06:18;;;;;;;24.35;5.15;;;;;;;8.86;70.30;100411.28;6189902;23;20076;-64
2023/12/22 07:09:19;;;;;;;29.48;5.93;;;;;;;8.90;70.82;100406.28;6190907;23;20166;-68
2023/12/22 07:11:48;;;;;;;33.78;6.25;;;;;;;8.82;70.42;100396.69;6193808;23;20025;-68
2023/12/22 07:14:16;;;;;;;30.30;5.57;;;;;;;8.84;70.27;100420.56;6194709;23;20036;-71
2023/12/22 07:16:44;;;;;;;35.80;6.13;;;;;;;8.83;70.87;100406.34;6196089;23;20045;-69
2023/12/22 07:19:13;;;;;;;32.65;5.55;;;;;;;8.82;70.92;100404.72;6195955;23;20076;-69
2023/12/22 07:21:41;;;;;;;32.30;8.48;;;;;;;8.83;70.62;100401.00;6195563;23;20025;-70
2023/12/22 07:24:15;;;;;;;25.55;5.68;;;;;;;8.82;70.55;100407.41;6195237;23;20021;-69
2023/12/22 07:26:44;;;;;;;32.88;7.20;;;;;;;8.83;70.73;100406.34;6195836;23;20079;-67
2023/12/22 07:29:12;;;;;;;25.17;5.75;;;;;;;8.80;70.57;100396.91;6191394;23;20029;-67
2023/12/22 07:31:41;;;;;;;31.60;7.53;;;;;;;8.85;70.89;100393.56;6192827;23;20025;-68
2023/12/22 07:34:08;;;;;;;26.90;5.10;;;;;;;8.86;70.71;100395.19;6194984;23;20017;-67
2023/12/22 07:36:37;;;;;;;29.42;5.85;;;;;;;8.86;70.23;100386.34;6193548;23;20083;-68
2023/12/22 07:39:18;;;;;;;32.33;5.47;;;;;;;8.89;70.67;100399.28;6193762;23;20048;-68
2023/12/22 07:41:46;;;;;;;28.98;5.97;;;;;;;8.87;70.27;100410.22;6194432;23;20029;-68
2023/12/22 07:44:14;;;;;;;26.25;5.43;;;;;;;8.85;70.53;100401.59;6195118;23;20077;-69
2023/12/22 07:46:42;;;;;;;21.05;5.30;;;;;;;8.84;70.39;100391.91;6194276;23;20087;-68
2023/12/22 07:49:12;;;;;;;27.40;5.40;;;;;;;8.85;70.88;100395.41;6194140;23;20028;-69
2023/12/22 07:51:42;;;;;;;27.27;5.90;;;;;;;8.82;70.69;100386.78;6194211;23;20029;-68
2023/12/22 07:54:10;;;;;;;34.10;6.78;;;;;;;8.83;71.21;100390.28;6193126;23;20458;-68
2023/12/22 07:56:39;;;;;;;33.53;7.20;;;;;;;8.89;71.09;100386.72;6194114;23;20028;-68
2023/12/22 07:59:07;;;;;;;28.35;5.50;;;;;;;8.94;71.00;100372.66;6193862;23;20029;-68
2023/12/22 08:01:53;;;;;;;24.85;5.90;;;;;;;9.01;70.41;100386.78;6194727;23;20025;-68
2023/12/22 08:04:21;;;;;;;25.77;6.18;;;;;;;9.02;70.36;100386.56;6195341;23;20100;-68
2023/12/22 08:06:49;;;;;;;29.05;5.63;;;;;;;9.06;70.79;100390.44;6194157;23;20060;-69
2023/12/22 08:09:17;;;;;;;24.50;5.18;;;;;;;9.07;70.28;100391.28;6193967;23;20029;-68
2023/12/22 08:11:47;;;;;;;26.80;6.47;;;;;;;9.08;70.62;100384.88;6193378;23;20029;-67
2023/12/22 08:14:15;;;;;;;22.25;4.45;;;;;;;9.06;70.79;100398.50;6194677;23;20347;-69
2023/12/22 08:16:44;;;;;;;34.10;6.10;;;;;;;9.07;70.45;100397.44;6193950;23;20033;-66
2023/12/22 08:19:12;;;;;;;20.70;5.60;;;;;;;9.06;70.80;100386.94;6194424;23;20021;-68
2023/12/22 08:21:40;;;;;;;20.80;4.55;;;;;;;9.06;70.94;100398.50;6193782;23;20029;-65
2023/12/22 08:24:13;;;;;;;33.40;5.85;;;;;;;9.07;71.42;100393.94;6193843;23;20020;-68
2023/12/22 08:26:51;;;;;;;21.13;4.63;;;;;;;9.14;71.23;100395.50;6186338;23;20021;-65
2023/12/22 08:29:19;;;;;;;27.48;5.15;;;;;;;9.20;70.63;100384.94;6189985;23;20025;-66
2023/12/22 08:31:47;;;;;;;21.75;4.43;;;;;;;9.22;71.12;100390.91;6190176;23;20025;-65
2023/12/22 08:34:15;;;;;;;17.80;5.53;;;;;;;9.21;71.03;100386.56;6190649;23;20021;-65
2023/12/22 08:36:43;;;;;;;20.80;4.57;;;;;;;9.21;71.34;100395.44;6189467;23;20025;-65
2023/12/22 08:39:12;;;;;;;17.23;5.10;;;;;;;9.22;71.68;100389.03;6189587;23;20029;-65
2023/12/22 08:41:41;;;;;;;19.52;3.35;;;;;;;9.21;71.62;100379.34;6190134;23;20029;-65
2023/12/22 08:44:10;;;;;;;19.25;3.38;;;;;;;9.20;72.08;100385.75;6190696;23;20096;-65
2023/12/22 08:46:38;;;;;;;16.17;3.72;;;;;;;9.20;71.67;100385.75;6189736;23;20055;-65
2023/12/22 08:49:06;;;;;;;23.33;5.32;;;;;;;9.27;71.69;100383.81;6190137;23;20056;-65
2023/12/22 08:51:34;;;;;;;19.63;3.92;;;;;;;9.44;71.30;100384.03;6189638;23;20028;-64
2023/12/22 08:54:04;;;;;;;10.55;2.95;;;;;;;9.58;70.69;100379.31;6189810;23;20418;-64
2023/12/22 08:56:31;;;;;;;18.23;3.10;;;;;;;9.72;70.55;100370.84;6189469;23;20091;-64
2023/12/22 08:58:59;;;;;;;14.10;3.55;;;;;;;9.95;69.52;100374.66;6189292;23;20025;-64
2023/12/22 09:01:29;;;;;;;12.90;2.88;;;;;;;10.11;69.27;100371.31;6189301;23;20583;-64
2023/12/22 09:03:56;;;;;;;14.00;3.08;;;;;;;10.27;68.96;100375.22;6189349;23;20135;-65
2023/12/22 09:06:25;;;;;;;10.10;2.38;;;;;;;10.41;68.46;100361.31;6188602;23;20029;-64
2023/12/22 09:08:53;;;;;;;12.13;2.97;;;;;;;10.56;68.22;100366.25;6189170;23;20171;-65
2023/12/22 09:11:22;;;;;;;9.98;2.58;;;;;;;10.70;67.65;100375.69;6188558;23;20084;-65
2023/12/22 09:13:50;;;;;;;7.90;2.28;;;;;;;10.85;67.65;100374.41;6188344;23;20021;-64
2023/12/22 09:16:22;;;;;;;10.20;2.55;;;;;;;10.88;67.12;100368.56;6189439;23;20024;-64
2023/12/22 09:18:51;;;;;;;7.53;1.98;;;;;;;10.95;67.34;100367.38;6191985;23;20089;-66
2023/12/22 09:21:20;;;;;;;8.70;1.92;;;;;;;10.90;67.88;100375.34;6190742;23;20056;-65
2023/12/22 09:23:49;;;;;;;8.90;1.70;;;;;;;10.76;67.79;100368.56;6191832;23;20021;-65
2023/12/22 09:26:17;;;;;;;8.60;1.60;;;;;;;10.57;68.88;100362.50;6190327;23;20021;-65
2023/12/22 09:28:46;;;;;;;6.00;1.73;;;;;;;10.39;69.31;100382.25;6191800;23;20025;-65
2023/12/22 09:31:14;;;;;;;6.60;1.52;;;;;;;10.26;70.10;100377.09;6191570;23;20252;-65
2023/12/22 09:33:42;;;;;;;6.25;1.58;;;;;;;10.11;70.75;100363.25;6190780;23;20406;-66
2023/12/22 09:36:12;;;;;;;10.43;2.25;;;;;;;9.99;71.28;100376.66;6190880;23;20029;-65
2023/12/22 09:38:41;;;;;;;7.40;1.45;;;;;;;9.91;71.48;100363.56;6193811;23;20021;-65
2023/12/22 09:41:10;;;;;;;6.95;1.85;;;;;;;9.85;72.19;100371.72;6195501;23;20092;-65
2023/12/22 09:43:39;;;;;;;5.90;1.40;;;;;;;9.82;72.01;100372.16;6196013;23;20024;-65
2023/12/22 09:46:09;;;;;;;8.73;2.05;;;;;;;9.78;72.52;100356.53;6196272;23;20080;-66
2023/12/22 09:48:39;;;;;;;9.98;1.50;;;;;;;9.72;72.48;100356.63;6195957;23;20084;-65
2023/12/22 09:51:08;;;;;;;4.00;1.38;;;;;;;9.70;72.49;100353.34;6195596;23;20105;-66
2023/12/22 09:53:39;;;;;;;10.05;1.95;;;;;;;9.84;72.48;100362.03;6194302;23;20083;-65
2023/12/22 09:56:08;;;;;;;5.32;1.45;;;;;;;9.97;71.99;100351.09;6194513;23;20068;-65
2023/12/22 09:58:38;;;;;;;6.40;1.42;;;;;;;10.13;71.55;100347.75;6194352;23;20297;-65
2023/12/22 10:01:06;;;;;;;7.25;1.80;;;;;;;10.27;71.14;100365.31;6195652;23;20439;-65
2023/12/22 10:03:35;;;;;;;5.95;1.27;;;;;;;10.46;70.65;100349.06;6195069;23;20447;-64
2023/12/22 10:06:03;;;;;;;7.85;2.00;;;;;;;10.64;70.08;100362.38;6194249;23;20044;-64
2023/12/22 10:08:31;;;;;;;4.30;1.27;;;;;;;10.74;69.61;100350.00;6195786;23;20128;-64
2023/12/22 10:11:01;;;;;;;6.07;1.10;;;;;;;10.84;69.35;100341.34;6195449;23;20029;-65
2023/12/22 10:13:29;;;;;;;6.28;1.50;;;;;;;10.98;68.76;100337.34;6195165;23;20028;-68
2023/12/22 10:15:58;;;;;;;6.93;1.42;;;;;;;11.19;68.03;100333.19;6196675;23;20017;-66
2023/12/22 10:18:26;;;;;;;3.75;1.30;;;;;;;11.30;67.41;100337.72;6195832;23;20045;-65
2023/12/22 10:20:54;;;;;;;4.10;1.27;;;;;;;11.25;67.37;100318.78;6196620;23;20056;-65
2023/12/22 10:23:22;;;;;;;7.30;1.65;;;;;;;11.29;67.65;100327.19;6194937;23;20542;-65
2023/12/22 10:25:51;;;;;;;5.70;1.67;;;;;;;11.22;67.78;100335.41;6196232;23;20575;-66
2023/12/22 10:28:24;;;;;;;7.97;1.50;;;;;;;11.11;68.51;100344.31;6195824;23;20025;-66
2023/12/22 10:30:55;;;;;;;8.35;1.85;;;;;;;10.95;68.63;100363.88;6196964;23;20036;-66
2023/12/22 10:33:23;;;;;;;5.50;1.95;;;;;;;10.73;69.56;100339.47;6196308;23;20044;-66
2023/12/22 10:35:52;;;;;;;8.15;1.42;;;;;;;10.54;70.21;100341.47;6196187;23;20104;-65
2023/12/22 10:38:20;;;;;;;6.82;1.60;;;;;;;10.41;70.82;100334.47;6195813;23;20055;-65
2023/12/22 10:40:48;;;;;;;4.80;1.38;;;;;;;10.30;71.46;100342.53;6196525;23;20021;-68
2023/12/22 10:43:16;;;;;;;5.18;1.30;;;;;;;10.30;71.39;100353.28;6194030;23;20045;-65
2023/12/22 10:45:45;;;;;;;6.75;1.30;;;;;;;10.14;72.37;100343.19;6195504;23;20222;-64
2023/12/22 10:48:14;;;;;;;3.55;1.25;;;;;;;10.05;72.71;100350.75;6195022;23;20052;-66
2023/12/22 10:50:42;;;;;;;4.88;1.48;;;;;;;10.00;72.70;100359.50;6190579;23;20052;-65
2023/12/22 10:53:11;;;;;;;10.80;2.40;;;;;;;9.97;73.08;100361.84;6190489;23;20379;-63
2023/12/22 10:55:43;;;;;;;6.88;1.63;;;;;;;9.98;72.83;100368.84;6191793;23;20021;-63
2023/12/22 10:58:11;;;;;;;9.18;1.80;;;;;;;10.05;72.81;100356.94;6190954;23;20056;-63
2023/12/22 11:00:42;;;;;;;5.53;2.00;;;;;;;10.20;72.30;100347.66;6191458;23;20036;-63
2023/12/22 11:03:17;;;;;;;7.03;1.52;;;;;;;10.36;71.87;100355.84;6191363;23;20096;-63
2023/12/22 11:05:47;;;;;;;6.40;1.50;;;;;;;10.54;71.11;100354.91;6190791;23;20029;-62
2023/12/22 11:08:16;;;;;;;7.25;1.83;;;;;;;10.62;70.66;100357.25;6190849;23;20036;-64
2023/12/22 11:10:47;;;;;;;9.43;2.35;;;;;;;10.64;70.63;100343.56;6191284;23;20033;-62
2023/12/22 11:13:16;;;;;;;8.38;2.00;;;;;;;10.55;70.83;100344.97;6190855;23;20105;-62
2023/12/22 11:15:45;;;;;;;7.75;2.45;;;;;;;10.57;70.71;100345.56;6191636;23;20036;-64
2023/12/22 11:18:16;;;;;;;3.78;1.50;;;;;;;10.54;70.81;100348.72;6191131;23;20028;-64
2023/12/22 11:20:45;;;;;;;7.60;1.85;;;;;;;10.43;70.92;100340.41;6195264;23;20166;-63
2023/12/22 11:23:15;;;;;;;6.13;1.27;;;;;;;10.32;71.51;100335.06;6195452;23;20076;-65
2023/12/22 11:25:45;;;;;;;5.95;1.40;;;;;;;10.29;71.57;100333.66;6195445;23;20079;-64
2023/12/22 11:28:15;;;;;;;7.13;1.63;;;;;;;10.19;71.93;100335.25;6194481;23;20024;-64
2023/12/22 11:30:44;;;;;;;5.93;1.77;;;;;;;10.11;72.08;100328.34;6195717;23;20080;-64
2023/12/22 11:33:13;;;;;;;11.20;2.15;;;;;;;10.13;72.13;100346.91;6195211;23;20026;-63
2023/12/22 11:35:43;;;;;;;5.65;1.73;;;;;;;10.06;72.39;100322.88;6194657;23;20017;-63